Time;durP1;ratioP1;P1;durP2;ratioP2;P2;SDS_P1;SDS_P2;PMS_P1;PMS_P2;Temp;Humidity;BMP_temperature;BMP_pressure;BME280_temperature;BME280_humidity;BME280_pressure;Samples;Min_cycle;Max_cycle;Signal;HPM_P1;HPM_P2
2021/12/07 00:01:04;;;;;;;29.45;16.35;;;;;;;1.32;68.50;98516.16;4341209;33;34750;-87
2021/12/07 00:03:32;;;;;;;34.58;18.40;;;;;;;1.12;69.33;98517.94;4346149;32;34127;-88
2021/12/07 00:06:00;;;;;;;27.75;17.50;;;;;;;0.93;69.97;98519.75;4346928;32;33813;-86
2021/12/07 00:08:28;;;;;;;27.35;15.65;;;;;;;1.06;69.56;98525.34;4357249;32;33446;-88
2021/12/07 00:10:56;;;;;;;31.08;17.67;;;;;;;1.15;68.28;98520.63;4334420;32;34832;-86
2021/12/07 00:13:28;;;;;;;31.20;17.27;;;;;;;1.03;69.61;98538.00;4346511;32;34027;-86
2021/12/07 00:15:57;;;;;;;28.73;16.70;;;;;;;0.83;70.27;98530.37;4350682;32;34841;-86
2021/12/07 00:18:24;;;;;;;30.12;17.83;;;;;;;0.80;70.49;98531.97;4358071;32;33419;-86
2021/12/07 00:20:52;;;;;;;29.25;17.80;;;;;;;0.73;70.46;98518.09;4346714;32;34769;-86
2021/12/07 00:23:20;;;;;;;31.70;17.35;;;;;;;0.88;70.03;98513.59;4333652;32;34813;-86
2021/12/07 00:25:47;;;;;;;33.10;18.15;;;;;;;0.75;70.45;98526.66;4344370;32;33655;-86
2021/12/07 00:28:18;;;;;;;29.25;17.67;;;;;;;1.13;69.34;98537.53;4340332;32;33138;-86
2021/12/07 00:30:48;;;;;;;33.10;19.45;;;;;;;1.03;69.78;98548.22;4358616;32;34058;-89
2021/12/07 00:35:53;;;;;;;29.37;17.75;;;;;;;1.21;68.66;98538.72;4342206;32;34761;-86
2021/12/07 00:38:24;;;;;;;33.22;19.08;;;;;;;0.57;70.88;98546.28;4353669;32;34245;-86
2021/12/07 00:40:52;;;;;;;30.45;17.98;;;;;;;0.84;69.94;98541.50;4343334;32;34007;-88
2021/12/07 00:43:20;;;;;;;36.03;19.08;;;;;;;1.22;68.71;98540.47;4359663;32;35087;-85
2021/12/07 00:45:49;;;;;;;34.42;18.50;;;;;;;1.16;68.90;98535.13;4370457;32;34452;-86
2021/12/07 00:48:19;;;;;;;30.40;16.80;;;;;;;0.40;71.90;98528.63;4369982;32;33315;-84
2021/12/07 00:50:48;;;;;;;33.45;17.25;;;;;;;0.88;69.90;98528.91;4375005;32;34031;-90
2021/12/07 00:53:16;;;;;;;33.38;19.62;;;;;;;0.92;69.87;98535.88;4352123;32;33741;-86
2021/12/07 00:55:48;;;;;;;31.77;18.70;;;;;;;0.53;70.80;98532.56;4366777;32;33845;-86
2021/12/07 00:58:20;;;;;;;29.75;17.48;;;;;;;1.05;69.32;98537.22;4361006;32;33207;-87
2021/12/07 01:00:52;;;;;;;29.42;17.52;;;;;;;0.54;70.95;98538.53;4353172;32;35022;-87
2021/12/07 01:03:20;;;;;;;32.15;17.45;;;;;;;1.26;68.23;98532.13;4335068;32;34159;-86
2021/12/07 01:05:51;;;;;;;31.90;18.60;;;;;;;0.79;69.76;98523.41;4361605;32;34458;-86
2021/12/07 01:08:56;;;;;;;33.38;18.77;;;;;;;0.58;70.84;98523.44;4361260;32;35091;-86
2021/12/07 01:25:24;;;;;;;31.83;17.48;;;;;;;0.51;71.85;98515.47;4351114;32;33345;-87
2021/12/07 01:27:54;;;;;;;36.08;19.55;;;;;;;0.21;72.87;98510.81;4367191;32;34498;-87
2021/12/07 01:30:37;;;;;;;38.95;19.25;;;;;;;0.31;72.28;98509.53;4363914;32;34299;-86
2021/12/07 01:33:42;;;;;;;33.25;19.62;;;;;;;0.24;72.47;98513.50;4363588;32;33563;-87
2021/12/07 01:36:07;;;;;;;33.65;18.12;;;;;;;0.59;70.68;98512.41;4360756;32;33970;-86
2021/12/07 02:00:11;;;;;;;30.98;17.98;;;;;;;0.53;72.14;98508.72;4369542;32;33630;-86
2021/12/07 02:02:39;;;;;;;34.13;18.83;;;;;;;0.75;71.06;98503.69;4360240;32;33588;-87
2021/12/07 02:05:09;;;;;;;35.10;20.00;;;;;;;0.71;71.20;98509.47;4368251;32;33598;-88
2021/12/07 02:07:36;;;;;;;36.47;19.83;;;;;;;0.31;72.36;98518.03;4375466;32;34155;-87
2021/12/07 02:10:10;;;;;;;34.17;19.77;;;;;;;0.54;71.97;98519.00;4370147;32;33833;-85
2021/12/07 02:12:45;;;;;;;36.38;18.65;;;;;;;0.17;73.36;98514.91;4360478;32;33527;-87
2021/12/07 02:15:33;;;;;;;35.92;19.35;;;;;;;0.56;71.72;98513.97;4368513;32;34716;-90
2021/12/07 02:18:02;;;;;;;32.72;19.00;;;;;;;0.08;73.62;98508.53;4349683;32;34343;-87
2021/12/07 02:20:30;;;;;;;37.75;19.35;;;;;;;0.77;71.08;98509.75;4346739;32;32490;-85
2021/12/07 02:22:58;;;;;;;35.25;19.30;;;;;;;-0.01;73.57;98512.41;4360177;32;34431;-86
2021/12/07 02:25:28;;;;;;;36.72;20.12;;;;;;;0.15;73.40;98502.88;4367943;32;34016;-86
2021/12/07 02:27:56;;;;;;;32.78;19.45;;;;;;;0.17;72.90;98503.84;4371514;32;34054;-88
2021/12/07 02:30:26;;;;;;;34.85;19.10;;;;;;;-0.25;74.66;98494.38;4354217;32;33844;-87
2021/12/07 02:32:54;;;;;;;36.30;19.92;;;;;;;0.07;73.80;98494.91;4334342;32;33807;-87
2021/12/07 02:35:27;;;;;;;35.97;19.20;;;;;;;0.22;73.19;98492.13;4347376;32;34027;-87
2021/12/07 02:37:57;;;;;;;36.13;19.12;;;;;;;0.14;73.61;98499.47;4359957;32;34226;-87
2021/12/07 02:40:25;;;;;;;35.08;19.37;;;;;;;0.19;73.58;98497.09;4352596;32;33941;-90
2021/12/07 02:42:53;;;;;;;37.53;20.73;;;;;;;0.21;73.34;98487.84;4364884;32;33509;-87
2021/12/07 02:45:22;;;;;;;38.40;20.98;;;;;;;0.26;73.28;98488.03;4366513;32;33579;-87
2021/12/07 02:47:50;;;;;;;40.25;22.05;;;;;;;0.45;72.61;98486.31;4373514;32;34966;-86
2021/12/07 02:50:18;;;;;;;37.45;18.58;;;;;;;0.66;71.78;98488.91;4346687;32;33805;-87
2021/12/07 02:52:46;;;;;;;35.80;19.02;;;;;;;0.57;71.76;98482.53;4348108;32;33759;-87
2021/12/07 02:55:14;;;;;;;35.40;20.15;;;;;;;0.43;72.20;98471.78;4359918;32;35104;-89
2021/12/07 02:57:43;;;;;;;40.33;20.33;;;;;;;0.44;72.36;98479.47;4358747;32;34309;-90
2021/12/07 03:00:18;;;;;;;36.10;20.52;;;;;;;0.75;70.83;98464.56;4365169;32;34613;-87
2021/12/07 03:02:54;;;;;;;35.10;19.42;;;;;;;0.02;73.22;98478.56;4363883;32;33402;-87
2021/12/07 03:27:36;;;;;;;38.45;20.55;;;;;;;0.30;72.39;98469.53;4367407;32;33951;-87
2021/12/07 03:30:05;;;;;;;35.50;19.30;;;;;;;0.53;71.86;98467.91;4364655;32;35064;-88
2021/12/07 03:32:34;;;;;;;36.67;20.95;;;;;;;0.75;70.80;98469.66;4359587;32;33579;-89
2021/12/07 03:35:01;;;;;;;36.25;20.12;;;;;;;0.59;71.33;98479.25;4364667;32;34091;-88
2021/12/07 03:37:29;;;;;;;35.25;20.23;;;;;;;0.20;72.47;98479.34;4368598;32;34749;-88
2021/12/07 03:39:57;;;;;;;37.70;20.12;;;;;;;0.25;73.03;98482.09;4361493;32;35088;-87
2021/12/07 03:42:24;;;;;;;35.58;20.35;;;;;;;0.42;72.02;98477.69;4362141;32;34167;-87
2021/12/07 03:44:52;;;;;;;36.22;21.62;;;;;;;-0.05;73.65;98477.41;4363389;32;33467;-86
2021/12/07 03:47:19;;;;;;;40.95;20.98;;;;;;;0.54;72.21;98479.88;4362929;32;33753;-87
2021/12/07 03:49:47;;;;;;;39.65;20.23;;;;;;;0.61;71.49;98476.78;4360023;32;34647;-88
2021/12/07 03:52:14;;;;;;;35.55;19.23;;;;;;;0.07;73.55;98476.19;4350370;32;34540;-87
2021/12/07 03:54:42;;;;;;;39.97;20.62;;;;;;;0.02;73.75;98482.78;4357188;32;33934;-87
2021/12/07 03:57:10;;;;;;;35.90;20.60;;;;;;;0.08;73.84;98483.94;4370755;32;33632;-87
2021/12/07 03:59:37;;;;;;;36.70;20.33;;;;;;;0.31;73.09;98486.59;4361397;32;33800;-87
2021/12/07 04:02:07;;;;;;;35.50;20.17;;;;;;;0.45;72.12;98488.00;4357662;32;33054;-86
2021/12/07 04:04:36;;;;;;;37.92;20.52;;;;;;;0.48;72.43;98485.59;4350306;32;31932;-87
2021/12/07 04:07:04;;;;;;;36.95;20.55;;;;;;;0.48;72.38;98486.44;4356244;32;33650;-88
2021/12/07 04:09:32;;;;;;;37.45;21.25;;;;;;;0.24;73.03;98495.62;4361360;32;34090;-87
2021/12/07 04:12:00;;;;;;;38.22;20.70;;;;;;;0.23;72.61;98496.47;4362022;32;33818;-86
2021/12/07 04:14:27;;;;;;;37.70;20.48;;;;;;;0.37;72.38;98487.69;4361761;32;33610;-89
2021/12/07 04:16:55;;;;;;;34.90;20.70;;;;;;;0.17;72.82;98486.00;4347564;32;33472;-87
2021/12/07 04:19:23;;;;;;;38.30;19.73;;;;;;;0.58;72.01;98484.31;4360992;32;33902;-87
2021/12/07 04:21:51;;;;;;;39.08;20.50;;;;;;;0.56;71.79;98484.22;4365613;32;34656;-86
2021/12/07 04:24:19;;;;;;;35.90;19.35;;;;;;;0.67;71.13;98484.66;4374452;32;33414;-88
2021/12/07 04:26:47;;;;;;;37.60;20.48;;;;;;;0.29;72.30;98493.28;4360673;32;34785;-87
2021/12/07 04:29:14;;;;;;;39.40;21.12;;;;;;;0.23;72.70;98492.22;4371712;32;35361;-87
2021/12/07 04:31:42;;;;;;;38.75;20.48;;;;;;;0.50;71.99;98506.06;4347296;32;34002;-87
2021/12/07 04:34:09;;;;;;;36.42;19.77;;;;;;;0.44;71.93;98497.34;4371457;32;33603;-88
2021/12/07 04:36:37;;;;;;;35.33;20.58;;;;;;;0.46;71.35;98505.94;4361258;32;33733;-89
2021/12/07 04:39:05;;;;;;;34.00;20.17;;;;;;;0.20;72.73;98502.28;4360926;32;34120;-87
2021/12/07 04:41:33;;;;;;;37.10;19.37;;;;;;;0.14;73.03;98504.56;4361659;32;33984;-87
2021/12/07 04:44:03;;;;;;;37.33;20.17;;;;;;;0.25;72.67;98499.94;4351508;32;33514;-89
2021/12/07 04:47:23;;;;;;;35.78;20.12;;;;;;;0.31;72.44;98500.19;4358662;32;34046;-88
2021/12/07 04:57:42;;;;;;;36.33;19.45;;;;;;;0.41;72.05;98517.59;4335179;32;33918;-89
2021/12/07 05:00:19;;;;;;;33.25;18.45;;;;;;;0.50;70.84;98509.50;4373252;32;34185;-86
2021/12/07 05:02:52;;;;;;;36.35;20.98;;;;;;;0.19;72.35;98517.50;4375438;32;35059;-85
2021/12/07 05:05:23;;;;;;;38.67;20.15;;;;;;;0.48;71.13;98516.19;4374115;32;33278;-85
2021/12/07 05:07:53;;;;;;;36.85;20.05;;;;;;;0.17;72.35;98525.09;4356866;32;33899;-90
2021/12/07 05:10:30;;;;;;;34.47;19.23;;;;;;;0.59;71.29;98525.16;4365884;32;34676;-85
2021/12/07 05:13:25;;;;;;;35.35;20.65;;;;;;;0.57;70.72;98531.91;4343931;32;32536;-86
2021/12/07 05:18:41;;;;;;;34.20;19.67;;;;;;;0.45;71.82;98522.03;4360865;32;33993;-85
2021/12/07 05:37:44;;;;;;;37.97;21.12;;;;;;;0.11;72.27;98521.41;4353162;32;32716;-84
2021/12/07 05:40:28;;;;;;;36.08;20.00;;;;;;;0.71;69.87;98520.56;4366257;32;33797;-88
2021/12/07 05:42:57;;;;;;;35.55;20.52;;;;;;;0.37;71.57;98531.03;4364190;32;33995;-83
2021/12/07 05:45:32;;;;;;;33.67;19.85;;;;;;;0.45;71.24;98531.34;4367671;32;34358;-89
2021/12/07 05:48:02;;;;;;;37.22;20.30;;;;;;;0.11;72.87;98523.94;4367347;32;33609;-87
2021/12/07 05:50:32;;;;;;;38.35;20.12;;;;;;;0.19;72.60;98522.59;4348791;32;34033;-91
2021/12/07 05:53:00;;;;;;;39.45;21.12;;;;;;;0.46;71.43;98515.28;4347853;32;34877;-86
2021/12/07 05:55:28;;;;;;;34.25;20.08;;;;;;;0.22;71.73;98509.97;4363257;32;33759;-89
2021/12/07 05:57:56;;;;;;;36.00;19.20;;;;;;;0.47;71.04;98510.22;4371841;32;34729;-91
2021/12/07 06:00:27;;;;;;;36.33;20.23;;;;;;;0.20;72.12;98515.03;4375976;32;33642;-90
2021/12/07 06:02:58;;;;;;;38.28;20.65;;;;;;;0.12;72.23;98515.50;4362315;32;33763;-86
2021/12/07 06:05:28;;;;;;;33.63;18.90;;;;;;;0.57;70.91;98515.69;4361170;32;33996;-87
2021/12/07 06:07:56;;;;;;;37.03;19.30;;;;;;;-0.10;72.60;98519.66;4374373;32;33586;-91
2021/12/07 06:10:24;;;;;;;38.22;21.25;;;;;;;0.11;72.12;98513.75;4374593;32;34834;-92
2021/12/07 06:12:52;;;;;;;36.28;20.48;;;;;;;0.22;71.71;98512.53;4375444;32;35054;-90
2021/12/07 06:15:22;;;;;;;35.70;21.27;;;;;;;0.51;70.99;98503.56;4375381;32;33570;-84
2021/12/07 06:17:51;;;;;;;34.22;20.83;;;;;;;0.15;71.94;98516.53;4362057;32;33365;-86
2021/12/07 06:20:20;;;;;;;35.03;19.12;;;;;;;0.22;71.39;98507.44;4373000;32;33991;-85
2021/12/07 06:23:09;;;;;;;34.40;20.02;;;;;;;0.08;72.25;98508.53;4360493;32;33966;-85
2021/12/07 06:25:37;;;;;;;37.05;20.00;;;;;;;-0.06;72.22;98516.44;4360548;32;34512;-86
2021/12/07 06:28:05;;;;;;;37.58;21.85;;;;;;;-0.54;74.50;98515.97;4361041;32;33565;-85
2021/12/07 06:30:38;;;;;;;40.80;20.90;;;;;;;-0.15;73.12;98510.97;4347921;32;35032;-86
2021/12/07 06:33:06;;;;;;;37.50;19.83;;;;;;;-0.15;73.30;98521.16;4335031;32;34340;-85
2021/12/07 06:35:33;;;;;;;34.10;20.65;;;;;;;-0.14;72.96;98517.78;4360532;32;33475;-86
2021/12/07 06:38:01;;;;;;;38.42;20.40;;;;;;;0.03;72.73;98526.16;4360028;32;33646;-85
2021/12/07 06:40:28;;;;;;;41.75;20.58;;;;;;;-0.22;73.60;98524.22;4346797;32;33928;-89
2021/12/07 06:42:59;;;;;;;41.03;22.50;;;;;;;-0.31;73.25;98522.13;4360496;32;34967;-91
2021/12/07 06:45:28;;;;;;;38.13;21.65;;;;;;;-0.23;73.35;98519.91;4346612;32;35066;-89
2021/12/07 06:47:57;;;;;;;37.72;20.45;;;;;;;-0.17;73.01;98520.19;4364881;32;33962;-88
2021/12/07 06:50:25;;;;;;;39.92;20.15;;;;;;;-0.06;72.47;98513.91;4375021;32;33939;-89
2021/12/07 06:52:53;;;;;;;39.35;21.27;;;;;;;0.07;72.46;98506.78;4360089;32;34015;-90
2021/12/07 06:55:21;;;;;;;35.95;19.50;;;;;;;0.33;71.20;98520.66;4361804;32;33733;-90
2021/12/07 06:57:48;;;;;;;38.20;20.52;;;;;;;-0.09;72.16;98520.53;4375218;32;33182;-91
2021/12/07 07:00:17;;;;;;;38.55;20.98;;;;;;;0.35;70.78;98519.91;4361288;32;33925;-86
2021/12/07 07:02:45;;;;;;;40.53;21.15;;;;;;;0.54;70.06;98530.91;4361500;32;34208;-89
2021/12/07 07:05:13;;;;;;;38.83;20.00;;;;;;;0.10;71.55;98529.84;4375088;32;33849;-89
2021/12/07 07:07:41;;;;;;;38.50;19.58;;;;;;;0.34;70.89;98524.94;4374649;32;33204;-87
2021/12/07 07:10:11;;;;;;;37.17;20.33;;;;;;;0.13;71.25;98538.50;4362059;32;33821;-90
2021/12/07 07:12:39;;;;;;;33.63;19.77;;;;;;;0.24;70.92;98531.34;4377197;32;35334;-91
2021/12/07 07:15:08;;;;;;;35.42;19.95;;;;;;;-0.42;73.29;98543.69;4376464;32;33644;-88
2021/12/07 07:17:36;;;;;;;37.08;20.35;;;;;;;0.02;71.93;98541.41;4376716;32;34293;-87
2021/12/07 07:20:06;;;;;;;37.63;20.37;;;;;;;0.25;70.81;98527.97;4363746;32;34679;-89
2021/12/07 07:22:34;;;;;;;36.53;20.23;;;;;;;0.30;71.12;98523.06;4351207;32;35141;-89
2021/12/07 07:25:02;;;;;;;37.50;20.92;;;;;;;0.36;70.66;98524.19;4376951;32;33899;-91
2021/12/07 07:27:30;;;;;;;37.15;20.12;;;;;;;0.24;71.27;98532.19;4363230;32;33026;-86
2021/12/07 07:29:57;;;;;;;35.72;19.85;;;;;;;0.41;70.55;98525.25;4363601;32;34732;-90
2021/12/07 07:32:25;;;;;;;35.63;19.27;;;;;;;0.61;70.42;98532.91;4363468;32;35010;-91
2021/12/07 07:34:52;;;;;;;37.63;20.55;;;;;;;-0.03;72.33;98531.00;4376809;32;34088;-91
2021/12/07 07:37:20;;;;;;;32.88;18.62;;;;;;;0.35;70.95;98534.34;4363098;32;32881;-90
2021/12/07 07:39:47;;;;;;;35.83;20.92;;;;;;;0.41;70.35;98540.56;4363256;32;33219;-86
2021/12/07 07:42:15;;;;;;;37.55;21.37;;;;;;;0.54;70.07;98541.09;4376549;32;33747;-89
2021/12/07 07:44:44;;;;;;;32.47;18.90;;;;;;;0.05;71.69;98549.19;4363455;32;34868;-87
2021/12/07 07:47:11;;;;;;;32.85;19.15;;;;;;;0.11;71.57;98554.53;4376518;32;33091;-90
2021/12/07 07:49:39;;;;;;;35.97;20.20;;;;;;;0.08;71.38;98554.41;4376399;32;35095;-85
2021/12/07 07:52:07;;;;;;;36.28;18.98;;;;;;;0.20;70.91;98555.81;4363068;32;33994;-88
2021/12/07 07:54:34;;;;;;;38.42;18.95;;;;;;;0.38;70.34;98550.66;4376708;32;34269;-89
2021/12/07 07:57:02;;;;;;;36.88;20.08;;;;;;;0.34;70.85;98548.78;4363249;32;33024;-89
2021/12/07 07:59:29;;;;;;;32.97;18.90;;;;;;;-0.13;71.81;98559.41;4376687;32;33983;-90
2021/12/07 08:01:57;;;;;;;37.38;20.05;;;;;;;0.12;71.75;98561.41;4362813;32;34787;-90
2021/12/07 08:04:25;;;;;;;37.55;20.92;;;;;;;0.19;71.19;98568.47;4376139;32;33766;-90
2021/12/07 08:06:52;;;;;;;32.92;18.80;;;;;;;0.03;71.13;98563.50;4376617;32;34484;-90
2021/12/07 08:09:20;;;;;;;35.30;19.15;;;;;;;0.14;71.28;98565.72;4376380;32;33862;-86
2021/12/07 08:11:47;;;;;;;35.00;19.35;;;;;;;0.50;69.87;98565.59;4376396;32;34286;-87
2021/12/07 08:14:17;;;;;;;34.50;19.70;;;;;;;0.10;70.84;98568.94;4362854;32;33710;-86
2021/12/07 08:16:46;;;;;;;36.53;19.30;;;;;;;0.47;69.33;98566.31;4376246;32;33497;-86
2021/12/07 08:19:13;;;;;;;35.35;18.60;;;;;;;0.60;68.70;98569.38;4376144;32;34127;-89
2021/12/07 08:21:42;;;;;;;40.17;20.17;;;;;;;0.00;70.76;98579.56;4362375;32;33842;-90
2021/12/07 08:24:09;;;;;;;39.85;20.60;;;;;;;0.23;70.17;98575.47;4376270;32;34817;-87
2021/12/07 08:26:37;;;;;;;40.75;19.85;;;;;;;0.38;69.89;98570.16;4376165;32;34217;-87
2021/12/07 08:29:05;;;;;;;35.83;18.37;;;;;;;0.33;70.03;98569.09;4362704;32;34296;-89
2021/12/07 08:31:32;;;;;;;38.42;19.73;;;;;;;0.43;70.08;98563.59;4362720;32;33451;-88
2021/12/07 08:34:00;;;;;;;35.38;19.10;;;;;;;0.12;71.03;98566.50;4362162;32;33978;-89
2021/12/07 08:36:28;;;;;;;37.45;18.70;;;;;;;0.41;70.37;98563.50;4362731;32;33128;-86
2021/12/07 08:38:56;;;;;;;35.28;18.73;;;;;;;0.15;71.01;98577.69;4376584;32;34701;-86
2021/12/07 08:41:24;;;;;;;37.90;18.87;;;;;;;-0.04;71.77;98573.47;4376627;32;33343;-87
2021/12/07 08:43:51;;;;;;;39.30;20.35;;;;;;;0.41;70.67;98560.94;4376187;32;34348;-92
2021/12/07 08:46:19;;;;;;;38.33;19.12;;;;;;;0.62;69.78;98560.13;4376299;32;33267;-85
2021/12/07 08:48:47;;;;;;;36.22;19.90;;;;;;;0.58;70.25;98559.13;4375808;32;34678;-86
2021/12/07 08:51:15;;;;;;;35.38;18.77;;;;;;;0.65;69.87;98565.38;4376072;32;34944;-86
2021/12/07 08:53:51;;;;;;;34.60;18.55;;;;;;;0.42;70.55;98556.75;4375958;32;34615;-91
2021/12/07 09:01:53;;;;;;;39.47;20.75;;;;;;;1.13;69.11;98548.62;4375866;32;34985;-86
2021/12/07 09:04:20;;;;;;;37.47;20.80;;;;;;;1.17;68.53;98554.72;4362360;32;34172;-88
2021/12/07 09:06:48;;;;;;;35.03;19.87;;;;;;;0.66;69.87;98547.56;4375984;32;33232;-86
2021/12/07 09:09:16;;;;;;;38.08;21.25;;;;;;;0.91;69.47;98546.91;4376039;32;33906;-92
2021/12/07 09:11:44;;;;;;;36.28;20.42;;;;;;;0.56;69.89;98549.66;4361998;32;34904;-91
2021/12/07 09:14:14;;;;;;;35.30;20.08;;;;;;;0.80;70.02;98544.72;4375687;32;33802;-92
2021/12/07 09:16:44;;;;;;;38.63;19.67;;;;;;;0.75;70.14;98541.97;4350045;32;33706;-91
2021/12/07 09:19:12;;;;;;;37.17;19.85;;;;;;;0.70;70.36;98548.56;4362109;32;34400;-86
2021/12/07 09:21:40;;;;;;;35.72;19.00;;;;;;;0.85;69.71;98550.88;4375838;32;34279;-90
2021/12/07 09:24:09;;;;;;;36.25;18.75;;;;;;;1.10;68.70;98542.50;4362440;32;34061;-90
2021/12/07 09:26:36;;;;;;;40.85;20.67;;;;;;;0.68;70.32;98545.06;4376168;32;33643;-91
2021/12/07 09:29:04;;;;;;;41.35;21.62;;;;;;;0.87;69.96;98541.59;4375523;32;34819;-91
2021/12/07 09:31:33;;;;;;;39.65;21.50;;;;;;;1.11;69.27;98539.19;4375739;32;34250;-90
2021/12/07 09:34:00;;;;;;;38.92;21.02;;;;;;;1.04;69.17;98534.62;4361083;32;34794;-90
2021/12/07 09:36:28;;;;;;;35.03;20.62;;;;;;;0.78;70.02;98524.25;4362153;32;33325;-91
2021/12/07 09:38:56;;;;;;;41.53;21.45;;;;;;;1.21;68.52;98521.72;4375618;32;33208;-90
2021/12/07 09:41:24;;;;;;;39.13;19.80;;;;;;;0.92;69.72;98524.81;4361963;32;35662;-86
2021/12/07 09:43:51;;;;;;;36.92;20.65;;;;;;;1.05;69.49;98524.47;4359300;32;89909;-91
2021/12/07 09:46:19;;;;;;;37.17;21.80;;;;;;;1.15;68.99;98525.72;4361840;32;33567;-92
2021/12/07 09:48:48;;;;;;;40.38;21.08;;;;;;;1.31;68.91;98524.63;4361749;32;33940;-90
2021/12/07 09:51:18;;;;;;;40.50;21.67;;;;;;;1.36;68.80;98516.31;4375598;32;33876;-88
2021/12/07 09:53:47;;;;;;;36.53;21.33;;;;;;;1.29;68.42;98510.91;4375395;32;33943;-86
2021/12/07 09:56:15;;;;;;;35.90;20.98;;;;;;;1.32;68.67;98501.69;4361939;32;34122;-89
2021/12/07 09:58:43;;;;;;;38.83;21.15;;;;;;;1.38;68.26;98507.06;4349465;32;32239;-86
2021/12/07 10:01:11;;;;;;;34.92;20.62;;;;;;;1.13;69.05;98505.22;4361621;32;34990;-90
2021/12/07 10:03:40;;;;;;;38.35;21.40;;;;;;;1.64;67.69;98499.50;4362326;32;33521;-86
2021/12/07 10:06:08;;;;;;;37.95;20.05;;;;;;;1.32;68.74;98496.59;4362169;32;33465;-88
2021/12/07 10:08:36;;;;;;;38.00;20.92;;;;;;;1.43;68.24;98500.41;4375287;32;33714;-88
2021/12/07 10:11:07;;;;;;;35.08;20.50;;;;;;;1.57;67.91;98497.53;4361958;32;34136;-90
2021/12/07 10:13:35;;;;;;;34.80;20.08;;;;;;;1.69;67.41;98490.31;4375436;32;34329;-89
2021/12/07 10:16:05;;;;;;;37.53;20.75;;;;;;;1.77;67.52;98486.34;4361600;32;34314;-89
2021/12/07 10:18:36;;;;;;;39.35;21.15;;;;;;;2.15;66.38;98495.38;4375420;32;34086;-91
2021/12/07 10:21:16;;;;;;;37.28;21.58;;;;;;;2.04;66.33;98481.34;4349569;32;32996;-87
2021/12/07 10:23:50;;;;;;;39.67;21.90;;;;;;;1.97;66.77;98483.63;4375346;32;33168;-87
2021/12/07 10:26:21;;;;;;;40.47;21.55;;;;;;;1.45;68.41;98483.47;4362180;32;32853;-91
2021/12/07 10:28:54;;;;;;;44.83;22.67;;;;;;;1.32;68.93;98482.94;4375135;32;34349;-91
2021/12/07 10:31:33;;;;;;;40.15;22.40;;;;;;;1.80;67.92;98480.50;4361613;32;32346;-90
2021/12/07 10:34:11;;;;;;;38.35;22.23;;;;;;;1.79;67.44;98471.94;4361679;32;33317;-90
2021/12/07 10:36:43;;;;;;;40.95;22.42;;;;;;;1.90;67.48;98472.34;4349486;32;33881;-87
2021/12/07 10:39:32;;;;;;;42.65;22.67;;;;;;;2.30;66.23;98474.59;4375002;32;34760;-87
2021/12/07 10:42:02;;;;;;;39.22;23.30;;;;;;;2.02;67.05;98477.03;4361550;32;34272;-88
2021/12/07 10:44:50;;;;;;;41.85;23.12;;;;;;;1.99;67.68;98482.03;4363290;32;33994;-91
2021/12/07 10:47:20;;;;;;;39.13;21.77;;;;;;;1.81;67.99;98483.09;4375082;32;32998;-86
2021/12/07 10:49:55;;;;;;;41.42;23.83;;;;;;;2.08;67.47;98484.87;4374998;32;33664;-87
2021/12/07 10:52:35;;;;;;;43.45;23.83;;;;;;;2.15;66.87;98482.59;4349089;32;34143;-90
2021/12/07 10:55:10;;;;;;;40.75;23.20;;;;;;;2.38;66.43;98472.28;4374720;32;34061;-90
2021/12/07 10:57:57;;;;;;;40.75;23.45;;;;;;;2.29;66.85;98477.09;4375070;32;33665;-87
2021/12/07 11:00:33;;;;;;;39.67;23.58;;;;;;;1.79;68.16;98473.66;4361438;32;33252;-88
2021/12/07 11:03:03;;;;;;;37.45;21.75;;;;;;;2.03;67.07;98473.62;4361396;32;34399;-89
2021/12/07 11:05:37;;;;;;;42.20;23.52;;;;;;;2.14;67.14;98472.31;4374653;32;34807;-91
2021/12/07 11:08:07;;;;;;;37.45;22.55;;;;;;;2.12;67.08;98468.84;4374783;32;33676;-88
2021/12/07 11:10:40;;;;;;;41.15;21.35;;;;;;;1.97;67.29;98471.75;4374684;32;33909;-86
2021/12/07 11:13:19;;;;;;;42.33;22.10;;;;;;;2.15;66.61;98479.16;4374510;32;33845;-90
2021/12/07 11:15:56;;;;;;;41.80;24.05;;;;;;;1.78;67.82;98477.88;4374961;32;34039;-86
2021/12/07 11:18:34;;;;;;;42.53;22.33;;;;;;;2.12;67.19;98469.72;4374645;32;34302;-86
2021/12/07 11:21:06;;;;;;;41.13;24.02;;;;;;;2.01;67.28;98468.47;4348592;32;33696;-86
2021/12/07 11:23:41;;;;;;;41.03;24.25;;;;;;;2.50;65.97;98461.59;4361011;32;34106;-91
2021/12/07 11:31:45;;;;;;;41.58;22.90;;;;;;;2.29;67.52;98457.50;4362837;32;34631;-86
2021/12/07 11:34:22;;;;;;;43.83;24.50;;;;;;;2.61;65.77;98461.16;4374461;32;35152;-91
2021/12/07 11:36:56;;;;;;;41.92;24.23;;;;;;;2.62;65.93;98459.47;4374502;32;34664;-89
2021/12/07 11:39:34;;;;;;;40.67;22.73;;;;;;;2.34;66.99;98461.06;4374195;32;34390;-90
2021/12/07 11:42:13;;;;;;;41.53;23.30;;;;;;;2.43;66.56;98463.97;4361132;32;33863;-85
2021/12/07 11:44:52;;;;;;;37.05;21.62;;;;;;;2.73;64.83;98470.91;4360392;32;33893;-90
2021/12/07 11:47:46;;;;;;;42.75;24.33;;;;;;;2.16;66.87;98479.25;4360505;32;33759;-89
2021/12/07 11:50:22;;;;;;;43.15;23.90;;;;;;;2.50;66.45;98467.59;4360559;32;33363;-91
2021/12/07 11:52:56;;;;;;;43.53;24.58;;;;;;;2.56;66.52;98461.81;4360367;32;34781;-90
2021/12/07 11:55:25;;;;;;;42.95;25.33;;;;;;;2.71;65.67;98456.31;4374084;32;34998;-91
2021/12/07 11:57:53;;;;;;;42.60;23.60;;;;;;;2.43;66.19;98463.97;4376235;32;34589;-87
2021/12/07 12:00:26;;;;;;;40.95;23.02;;;;;;;2.32;66.27;98457.62;4362665;32;33663;-91
2021/12/07 12:02:53;;;;;;;40.75;23.62;;;;;;;2.19;66.58;98458.88;4362910;32;33799;-91
2021/12/07 12:05:21;;;;;;;38.00;24.15;;;;;;;2.18;66.84;98456.28;4376596;32;34976;-89
2021/12/07 12:07:49;;;;;;;40.83;24.40;;;;;;;2.14;66.65;98450.19;4350182;32;33618;-90
2021/12/07 12:10:18;;;;;;;42.05;23.67;;;;;;;2.07;67.22;98444.81;4350493;32;33538;-91
2021/12/07 12:12:56;;;;;;;43.42;25.50;;;;;;;1.99;67.68;98456.44;4362646;32;33924;-90
2021/12/07 12:15:38;;;;;;;40.42;23.83;;;;;;;2.26;67.12;98438.63;4350449;32;35003;-90
2021/12/07 12:18:15;;;;;;;42.90;24.25;;;;;;;2.20;66.59;98426.53;4376077;32;33841;-89
2021/12/07 12:21:22;;;;;;;45.60;24.65;;;;;;;2.00;67.68;98437.72;4362611;32;33285;-87
2021/12/07 12:24:15;;;;;;;41.88;22.92;;;;;;;2.57;65.71;98445.63;4353187;32;33572;-90
2021/12/07 12:26:45;;;;;;;45.12;23.17;;;;;;;2.20;67.11;98444.41;4362862;32;34050;-89
2021/12/07 12:29:22;;;;;;;41.80;24.77;;;;;;;2.01;67.73;98449.69;4362707;32;34054;-91
2021/12/07 12:31:53;;;;;;;41.92;24.60;;;;;;;2.29;67.02;98444.72;4376150;32;34361;-91
2021/12/07 12:34:27;;;;;;;43.25;24.35;;;;;;;2.23;66.87;98452.16;4362547;32;33746;-89
2021/12/07 12:37:15;;;;;;;44.55;24.77;;;;;;;2.66;65.21;98457.03;4362431;32;34150;-86
2021/12/07 12:39:53;;;;;;;43.55;24.63;;;;;;;1.95;67.92;98468.25;4362113;32;34141;-90
2021/12/07 12:42:39;;;;;;;42.67;23.92;;;;;;;2.00;67.93;98463.28;4362269;32;34572;-90
2021/12/07 12:45:22;;;;;;;48.25;27.05;;;;;;;2.25;67.43;98476.13;4375969;32;33941;-91
2021/12/07 12:48:03;;;;;;;48.60;26.58;;;;;;;2.31;66.84;98476.34;4375922;32;34755;-86
2021/12/07 12:50:33;;;;;;;46.72;26.37;;;;;;;2.32;66.89;98470.41;4376048;32;34275;-91
2021/12/07 12:53:11;;;;;;;45.80;27.35;;;;;;;2.42;67.16;98480.12;4375978;32;33271;-90
2021/12/07 12:55:45;;;;;;;44.17;25.37;;;;;;;2.13;67.61;98489.34;4362286;32;34059;-88
2021/12/07 12:58:20;;;;;;;48.53;26.17;;;;;;;2.36;67.15;98484.16;4362387;32;34864;-86
2021/12/07 13:01:16;;;;;;;48.97;28.27;;;;;;;2.03;68.56;98501.75;4376125;32;33508;-90
2021/12/07 13:03:47;;;;;;;45.28;24.42;;;;;;;2.25;67.22;98501.69;4376069;32;33617;-90
2021/12/07 13:06:20;;;;;;;47.25;26.73;;;;;;;1.80;69.17;98503.50;4375785;32;33308;-91
2021/12/07 13:09:07;;;;;;;44.38;25.15;;;;;;;2.19;67.72;98499.78;4363809;32;33998;-86
2021/12/07 13:12:00;;;;;;;44.15;24.50;;;;;;;1.92;68.73;98491.16;4375922;32;33646;-92
2021/12/07 13:14:36;;;;;;;41.90;25.08;;;;;;;2.22;67.58;98500.72;4375843;32;33701;-92
2021/12/07 13:17:15;;;;;;;42.67;24.27;;;;;;;2.03;68.35;98501.75;4375714;32;34528;-91
2021/12/07 13:20:08;;;;;;;46.13;26.00;;;;;;;1.86;69.36;98501.16;4362097;32;33669;-86
2021/12/07 13:22:45;;;;;;;42.25;24.58;;;;;;;2.37;67.60;98493.56;4362363;32;34751;-90